Strona główna
METAR-TAF:

METAR-TAF

Lotnisko :

Port lotniczy Madera

Funchal, Madera, Portugalia

Szerokość geograficzna: 32-41-52N, Długość geograficzna: 016-46-28W, wysokość: 59 m

Aktualna obserwacja pogody

Raport powstał 39 minut temu, godzina 22:30 UTC
Wiatr 17 kt od północno-północny wschód w porywach dochodzący do 28 kt, zmienny między północ i wschodnio-północny wschód
Temperatura 22°C
Wilgotność 73%
Ciśnienie 1022 hPa
Widzialność 10 km lub więcej
Mało chmury na wysokości 1600 ft

METAR: LPMA 222230Z 03017G28KT 360V060 9999 FEW016 22/17 Q1022

czas: 00:09 (23:09 UTC)

Prognoza

Raport powstał 6 godziny i 9 minut temu, godzina 17:00 UTC
Prognoza ważna od 22 godzina 18 UTC do 23 godzina 18 UTC
Wiatr 15 kt od północno-północny wschód
Widzialność 10 km lub więcej
Rozproszone chmury na wysokości 1600 ft
Przejściowo
od 22 godzina 18 UTC do 23 godzina 18 UTC
Wiatr 20 kt od północno-północny wschód w porywach dochodzący do 30 kt

TAF: LPMA 221700Z 2218/2318 03015KT 9999 SCT016 TEMPO 2218/2318 03020G30KT

Obserwacja i prognoza pogody dla ponad 4000 lotnisk (raport METAR i TAF).

Dostępne stacje oznaczono żółtymi i czerwonymi punktami na mapie.

Najedź kursorem aby zobaczyć nazwę stacji.

Kliknij aby zobaczyć obserwacje i prognozy pogody.

Aby zmienić mapę: kliknij na zielony przycisk z czarnym krzyżykiem, aby powiększyć; na zielony przycisk z myślnikiem, aby pomniejszyć; na zielone strzałki, aby przejść do map sąsiednich.


METAR-TAF: